sensor_id;sensor_type;location;lat;lon;timestamp;pressure;altitude;pressure_sealevel;temperature;humidity
38912;BME280;28444;48.056;14.408;2023-04-01T00:01:10;96308.72;;;8.78;76.25
38912;BME280;28444;48.056;14.408;2023-04-01T00:03:38;96315.03;;;8.80;76.84
38912;BME280;28444;48.056;14.408;2023-04-01T00:06:05;96315.19;;;8.82;75.56
38912;BME280;28444;48.056;14.408;2023-04-01T00:08:32;96315.59;;;8.88;74.41
38912;BME280;28444;48.056;14.408;2023-04-01T00:10:59;96321.19;;;8.90;76.29
38912;BME280;28444;48.056;14.408;2023-04-01T00:13:26;96323.19;;;8.90;73.89
38912;BME280;28444;48.056;14.408;2023-04-01T00:15:54;96326.50;;;8.88;74.86
38912;BME280;28444;48.056;14.408;2023-04-01T00:18:23;96324.22;;;8.85;75.04
38912;BME280;28444;48.056;14.408;2023-04-01T00:20:51;96321.22;;;8.81;75.19
38912;BME280;28444;48.056;14.408;2023-04-01T00:23:18;96327.91;;;8.89;75.99
38912;BME280;28444;48.056;14.408;2023-04-01T00:25:46;96324.34;;;8.87;74.34
38912;BME280;28444;48.056;14.408;2023-04-01T00:28:18;96325.47;;;8.94;73.48
38912;BME280;28444;48.056;14.408;2023-04-01T00:30:47;96329.03;;;8.96;73.81
38912;BME280;28444;48.056;14.408;2023-04-01T00:33:15;96326.47;;;8.98;73.99
38912;BME280;28444;48.056;14.408;2023-04-01T00:35:42;96331.06;;;8.96;73.27
38912;BME280;28444;48.056;14.408;2023-04-01T00:38:09;96333.50;;;8.91;73.39
38912;BME280;28444;48.056;14.408;2023-04-01T00:40:43;96336.94;;;8.92;73.02
38912;BME280;28444;48.056;14.408;2023-04-01T00:43:16;96336.50;;;8.96;72.54
38912;BME280;28444;48.056;14.408;2023-04-01T00:45:46;96332.09;;;8.90;73.17
38912;BME280;28444;48.056;14.408;2023-04-01T00:48:23;96329.94;;;8.89;72.26
38912;BME280;28444;48.056;14.408;2023-04-01T00:51:02;96333.06;;;8.95;72.17
38912;BME280;28444;48.056;14.408;2023-04-01T00:53:32;96327.16;;;8.99;70.50
38912;BME280;28444;48.056;14.408;2023-04-01T00:56:05;96340.94;;;9.01;70.96
38912;BME280;28444;48.056;14.408;2023-04-01T00:58:38;96333.78;;;8.96;71.09
38912;BME280;28444;48.056;14.408;2023-04-01T01:01:08;96334.94;;;8.92;72.49
38912;BME280;28444;48.056;14.408;2023-04-01T01:03:36;96335.13;;;8.85;73.28
38912;BME280;28444;48.056;14.408;2023-04-01T01:06:46;96335.13;;;8.85;72.12
38912;BME280;28444;48.056;14.408;2023-04-01T01:09:41;96334.66;;;8.88;72.75
38912;BME280;28444;48.056;14.408;2023-04-01T01:12:18;96336.53;;;8.86;72.32
38912;BME280;28444;48.056;14.408;2023-04-01T01:14:59;96328.41;;;8.76;73.14
38912;BME280;28444;48.056;14.408;2023-04-01T01:17:56;96328.69;;;8.80;71.86
38912;BME280;28444;48.056;14.408;2023-04-01T01:20:47;96330.09;;;8.81;72.45
38912;BME280;28444;48.056;14.408;2023-04-01T01:23:48;96329.28;;;8.79;72.09
38912;BME280;28444;48.056;14.408;2023-04-01T01:26:51;96328.22;;;8.84;72.54
38912;BME280;28444;48.056;14.408;2023-04-01T01:32:56;96309.44;;;8.78;73.24
38912;BME280;28444;48.056;14.408;2023-04-01T01:35:35;96315.06;;;8.71;73.71
38912;BME280;28444;48.056;14.408;2023-04-01T01:38:10;96317.94;;;8.73;73.11
38912;BME280;28444;48.056;14.408;2023-04-01T01:40:41;96319.81;;;8.70;73.21
38912;BME280;28444;48.056;14.408;2023-04-01T01:43:12;96323.56;;;8.65;73.03
38912;BME280;28444;48.056;14.408;2023-04-01T01:45:44;96326.16;;;8.63;72.49
38912;BME280;28444;48.056;14.408;2023-04-01T01:48:12;96315.94;;;8.73;73.00
38912;BME280;28444;48.056;14.408;2023-04-01T01:50:40;96307.91;;;8.75;74.25
38912;BME280;28444;48.056;14.408;2023-04-01T01:53:10;96320.25;;;8.66;74.11
38912;BME280;28444;48.056;14.408;2023-04-01T01:55:43;96321.13;;;8.59;74.70
38912;BME280;28444;48.056;14.408;2023-04-01T01:58:56;96323.91;;;8.50;75.25
38912;BME280;28444;48.056;14.408;2023-04-01T02:01:20;96319.88;;;8.51;75.50
38912;BME280;28444;48.056;14.408;2023-04-01T02:03:49;96311.44;;;8.47;74.77
38912;BME280;28444;48.056;14.408;2023-04-01T02:06:20;96316.56;;;8.52;74.97
38912;BME280;28444;48.056;14.408;2023-04-01T02:08:56;96322.00;;;8.52;75.90
38912;BME280;28444;48.056;14.408;2023-04-01T02:14:22;96319.16;;;8.50;75.55
38912;BME280;28444;48.056;14.408;2023-04-01T02:17:11;96322.59;;;8.51;75.24
38912;BME280;28444;48.056;14.408;2023-04-01T02:19:46;96327.19;;;8.48;75.38
38912;BME280;28444;48.056;14.408;2023-04-01T02:22:18;96328.31;;;8.55;75.51
38912;BME280;28444;48.056;14.408;2023-04-01T02:24:47;96331.59;;;8.53;76.71
38912;BME280;28444;48.056;14.408;2023-04-01T02:27:15;96332.38;;;8.44;77.15
38912;BME280;28444;48.056;14.408;2023-04-01T02:29:41;96337.09;;;8.43;77.08
38912;BME280;28444;48.056;14.408;2023-04-01T02:32:09;96330.78;;;8.51;76.88
38912;BME280;28444;48.056;14.408;2023-04-01T02:34:36;96336.38;;;8.43;78.18
38912;BME280;28444;48.056;14.408;2023-04-01T02:37:03;96337.38;;;8.48;77.42
38912;BME280;28444;48.056;14.408;2023-04-01T02:39:30;96335.78;;;8.44;76.72
38912;BME280;28444;48.056;14.408;2023-04-01T02:41:57;96331.50;;;8.32;77.96
38912;BME280;28444;48.056;14.408;2023-04-01T02:44:24;96339.09;;;8.33;78.22
38912;BME280;28444;48.056;14.408;2023-04-01T02:46:51;96339.41;;;8.37;78.35
38912;BME280;28444;48.056;14.408;2023-04-01T02:49:17;96328.50;;;8.37;77.58
38912;BME280;28444;48.056;14.408;2023-04-01T02:51:44;96331.94;;;8.38;78.13
38912;BME280;28444;48.056;14.408;2023-04-01T02:54:11;96326.78;;;8.32;78.49
38912;BME280;28444;48.056;14.408;2023-04-01T02:56:38;96331.19;;;8.28;79.79
38912;BME280;28444;48.056;14.408;2023-04-01T02:59:04;96330.22;;;8.23;79.94
38912;BME280;28444;48.056;14.408;2023-04-01T03:01:31;96338.97;;;8.22;80.18
38912;BME280;28444;48.056;14.408;2023-04-01T03:03:58;96336.94;;;8.32;79.09
38912;BME280;28444;48.056;14.408;2023-04-01T03:06:25;96329.06;;;8.26;80.55
38912;BME280;28444;48.056;14.408;2023-04-01T03:08:51;96329.22;;;8.28;79.35
38912;BME280;28444;48.056;14.408;2023-04-01T03:11:18;96333.38;;;8.29;79.07
38912;BME280;28444;48.056;14.408;2023-04-01T03:13:45;96327.38;;;8.21;79.83
38912;BME280;28444;48.056;14.408;2023-04-01T03:16:11;96324.50;;;8.19;79.74
38912;BME280;28444;48.056;14.408;2023-04-01T03:18:38;96326.22;;;8.05;79.24
38912;BME280;28444;48.056;14.408;2023-04-01T03:21:19;96332.09;;;8.11;79.46
38912;BME280;28444;48.056;14.408;2023-04-01T03:23:46;96335.81;;;8.06;80.21
38912;BME280;28444;48.056;14.408;2023-04-01T03:26:13;96329.81;;;8.07;78.78
38912;BME280;28444;48.056;14.408;2023-04-01T03:28:40;96335.97;;;7.98;79.47
38912;BME280;28444;48.056;14.408;2023-04-01T03:31:07;96335.13;;;7.95;79.50
38912;BME280;28444;48.056;14.408;2023-04-01T03:33:34;96340.84;;;8.00;79.74
38912;BME280;28444;48.056;14.408;2023-04-01T03:36:01;96339.28;;;8.06;79.33
38912;BME280;28444;48.056;14.408;2023-04-01T03:38:27;96347.56;;;8.08;78.81
38912;BME280;28444;48.056;14.408;2023-04-01T03:40:54;96346.56;;;8.13;78.91
38912;BME280;28444;48.056;14.408;2023-04-01T03:43:21;96354.16;;;8.15;78.88
38912;BME280;28444;48.056;14.408;2023-04-01T03:45:50;96358.47;;;8.18;78.78
38912;BME280;28444;48.056;14.408;2023-04-01T03:48:17;96370.50;;;8.15;79.26
38912;BME280;28444;48.056;14.408;2023-04-01T03:50:44;96381.53;;;8.27;78.99
38912;BME280;28444;48.056;14.408;2023-04-01T03:53:11;96383.97;;;8.13;79.94
38912;BME280;28444;48.056;14.408;2023-04-01T03:55:38;96384.97;;;8.08;81.67
38912;BME280;28444;48.056;14.408;2023-04-01T03:58:06;96394.13;;;7.93;84.01
38912;BME280;28444;48.056;14.408;2023-04-01T04:00:33;96391.25;;;7.71;85.02
38912;BME280;28444;48.056;14.408;2023-04-01T04:02:59;96385.34;;;7.65;86.37
38912;BME280;28444;48.056;14.408;2023-04-01T04:05:27;96387.94;;;7.63;87.45
38912;BME280;28444;48.056;14.408;2023-04-01T04:07:54;96370.88;;;7.53;88.84
38912;BME280;28444;48.056;14.408;2023-04-01T04:10:21;96376.91;;;7.52;89.34
38912;BME280;28444;48.056;14.408;2023-04-01T04:12:49;96367.00;;;7.46;90.08
38912;BME280;28444;48.056;14.408;2023-04-01T04:15:16;96373.13;;;7.47;89.24
38912;BME280;28444;48.056;14.408;2023-04-01T04:17:46;96370.59;;;7.49;88.51
38912;BME280;28444;48.056;14.408;2023-04-01T04:20:14;96365.44;;;7.53;89.16
38912;BME280;28444;48.056;14.408;2023-04-01T04:22:41;96369.28;;;7.50;88.93
38912;BME280;28444;48.056;14.408;2023-04-01T04:25:08;96370.88;;;7.53;88.63
38912;BME280;28444;48.056;14.408;2023-04-01T04:27:35;96369.88;;;7.48;88.53
38912;BME280;28444;48.056;14.408;2023-04-01T04:30:03;96367.00;;;7.46;87.96
38912;BME280;28444;48.056;14.408;2023-04-01T04:32:30;96375.88;;;7.47;88.54
38912;BME280;28444;48.056;14.408;2023-04-01T04:34:57;96376.56;;;7.47;88.24
38912;BME280;28444;48.056;14.408;2023-04-01T04:37:23;96380.31;;;7.52;86.86
38912;BME280;28444;48.056;14.408;2023-04-01T04:39:52;96377.88;;;7.46;87.34
38912;BME280;28444;48.056;14.408;2023-04-01T04:42:19;96379.28;;;7.47;87.26
38912;BME280;28444;48.056;14.408;2023-04-01T04:44:45;96377.88;;;7.46;86.60
38912;BME280;28444;48.056;14.408;2023-04-01T04:47:12;96383.47;;;7.48;86.08
38912;BME280;28444;48.056;14.408;2023-04-01T04:49:39;96385.06;;;7.52;85.58
38912;BME280;28444;48.056;14.408;2023-04-01T04:52:06;96386.44;;;7.43;86.17
38912;BME280;28444;48.056;14.408;2023-04-01T04:54:32;96382.84;;;7.40;85.67
38912;BME280;28444;48.056;14.408;2023-04-01T04:56:59;96386.75;;;7.47;85.38
38912;BME280;28444;48.056;14.408;2023-04-01T04:59:26;96402.09;;;7.52;85.86
38912;BME280;28444;48.056;14.408;2023-04-01T05:01:52;96383.75;;;7.53;85.48
38912;BME280;28444;48.056;14.408;2023-04-01T05:04:19;96389.75;;;7.51;85.49
38912;BME280;28444;48.056;14.408;2023-04-01T05:06:46;96387.19;;;7.53;84.49
38912;BME280;28444;48.056;14.408;2023-04-01T05:09:13;96398.66;;;7.52;85.17
38912;BME280;28444;48.056;14.408;2023-04-01T05:11:39;96389.50;;;7.57;84.77
38912;BME280;28444;48.056;14.408;2023-04-01T05:14:12;96396.06;;;7.54;85.09
38912;BME280;28444;48.056;14.408;2023-04-01T05:16:39;96389.94;;;7.63;84.45
38912;BME280;28444;48.056;14.408;2023-04-01T05:19:05;96400.09;;;7.62;84.50
38912;BME280;28444;48.056;14.408;2023-04-01T05:21:32;96403.69;;;7.65;84.22
38912;BME280;28444;48.056;14.408;2023-04-01T05:23:59;96404.56;;;7.67;83.93
38912;BME280;28444;48.056;14.408;2023-04-01T05:26:25;96409.28;;;7.77;84.07
38912;BME280;28444;48.056;14.408;2023-04-01T05:28:52;96414.31;;;7.70;84.63
38912;BME280;28444;48.056;14.408;2023-04-01T05:31:19;96399.28;;;7.79;82.84
38912;BME280;28444;48.056;14.408;2023-04-01T05:33:45;96411.44;;;7.78;83.88
38912;BME280;28444;48.056;14.408;2023-04-01T05:36:14;96415.59;;;7.79;82.99
38912;BME280;28444;48.056;14.408;2023-04-01T05:38:41;96404.16;;;7.90;82.20
38912;BME280;28444;48.056;14.408;2023-04-01T05:41:09;96399.56;;;7.83;81.77
38912;BME280;28444;48.056;14.408;2023-04-01T05:43:36;96401.00;;;7.94;81.57
38912;BME280;28444;48.056;14.408;2023-04-01T05:46:03;96405.91;;;7.95;82.94
38912;BME280;28444;48.056;14.408;2023-04-01T05:48:32;96417.78;;;8.00;83.18
38912;BME280;28444;48.056;14.408;2023-04-01T05:51:00;96424.09;;;7.93;83.18
38912;BME280;28444;48.056;14.408;2023-04-01T05:53:27;96409.16;;;7.94;83.60
38912;BME280;28444;48.056;14.408;2023-04-01T05:55:54;96414.06;;;8.05;83.67
38912;BME280;28444;48.056;14.408;2023-04-01T05:58:21;96418.50;;;8.10;83.81
38912;BME280;28444;48.056;14.408;2023-04-01T06:00:47;96426.41;;;8.26;82.93
38912;BME280;28444;48.056;14.408;2023-04-01T06:03:27;96419.22;;;8.30;82.63
38912;BME280;28444;48.056;14.408;2023-04-01T06:05:54;96428.81;;;8.31;82.78
38912;BME280;28444;48.056;14.408;2023-04-01T06:08:21;96418.38;;;8.37;81.03
38912;BME280;28444;48.056;14.408;2023-04-01T06:15:10;96417.25;;;8.50;81.68
38912;BME280;28444;48.056;14.408;2023-04-01T06:17:57;96418.25;;;8.55;81.79
38912;BME280;28444;48.056;14.408;2023-04-01T06:20:47;96417.22;;;8.60;81.62
38912;BME280;28444;48.056;14.408;2023-04-01T06:26:33;96431.13;;;8.64;82.09
38912;BME280;28444;48.056;14.408;2023-04-01T06:29:44;96430.84;;;8.70;82.08
38912;BME280;28444;48.056;14.408;2023-04-01T06:38:25;96433.53;;;8.89;81.37
38912;BME280;28444;48.056;14.408;2023-04-01T06:47:17;96433.75;;;9.12;80.35
38912;BME280;28444;48.056;14.408;2023-04-01T06:50:07;96431.78;;;9.03;79.77
38912;BME280;28444;48.056;14.408;2023-04-01T06:53:18;96435.53;;;8.98;80.72
38912;BME280;28444;48.056;14.408;2023-04-01T06:55:51;96423.84;;;9.07;80.60
38912;BME280;28444;48.056;14.408;2023-04-01T06:58:29;96431.16;;;9.14;79.47
38912;BME280;28444;48.056;14.408;2023-04-01T07:01:00;96428.25;;;9.22;80.06
38912;BME280;28444;48.056;14.408;2023-04-01T07:03:55;96430.97;;;9.32;78.16
38912;BME280;28444;48.056;14.408;2023-04-01T07:06:28;96428.81;;;9.30;78.76
38912;BME280;28444;48.056;14.408;2023-04-01T07:09:00;96425.91;;;9.38;77.71
38912;BME280;28444;48.056;14.408;2023-04-01T07:11:34;96438.41;;;9.41;76.26
38912;BME280;28444;48.056;14.408;2023-04-01T07:14:04;96437.00;;;9.30;76.17
38912;BME280;28444;48.056;14.408;2023-04-01T07:20:00;96428.69;;;9.28;76.25
38912;BME280;28444;48.056;14.408;2023-04-01T07:22:36;96428.69;;;9.28;76.94
38912;BME280;28444;48.056;14.408;2023-04-01T07:25:12;96421.34;;;9.31;74.84
38912;BME280;28444;48.056;14.408;2023-04-01T07:27:41;96439.75;;;9.30;76.31
38912;BME280;28444;48.056;14.408;2023-04-01T07:30:16;96448.88;;;9.45;76.17
38912;BME280;28444;48.056;14.408;2023-04-01T07:33:15;96433.91;;;9.46;76.30
38912;BME280;28444;48.056;14.408;2023-04-01T07:35:52;96443.91;;;9.62;75.94
38912;BME280;28444;48.056;14.408;2023-04-01T07:38:59;96437.56;;;9.70;75.07
38912;BME280;28444;48.056;14.408;2023-04-01T07:41:55;96441.59;;;9.90;74.24
38912;BME280;28444;48.056;14.408;2023-04-01T07:44:47;96443.81;;;10.03;74.61
38912;BME280;28444;48.056;14.408;2023-04-01T07:47:25;96437.09;;;9.95;73.33
38912;BME280;28444;48.056;14.408;2023-04-01T07:50:13;96445.28;;;9.95;72.57
38912;BME280;28444;48.056;14.408;2023-04-01T07:56:07;96448.81;;;10.07;72.00
38912;BME280;28444;48.056;14.408;2023-04-01T08:05:27;96457.78;;;10.19;71.17
38912;BME280;28444;48.056;14.408;2023-04-01T08:08:41;96445.66;;;10.32;71.55
38912;BME280;28444;48.056;14.408;2023-04-01T08:11:21;96453.84;;;10.32;70.32
38912;BME280;28444;48.056;14.408;2023-04-01T08:15:25;96462.38;;;10.26;70.41
38912;BME280;28444;48.056;14.408;2023-04-01T08:17:31;96452.41;;;10.31;68.98
38912;BME280;28444;48.056;14.408;2023-04-01T08:23:27;96466.81;;;10.31;69.97
38912;BME280;28444;48.056;14.408;2023-04-01T08:26:23;96447.47;;;10.39;71.35
38912;BME280;28444;48.056;14.408;2023-04-01T08:29:20;96463.88;;;10.39;70.23
38912;BME280;28444;48.056;14.408;2023-04-01T08:32:12;96453.50;;;10.38;69.49
38912;BME280;28444;48.056;14.408;2023-04-01T08:34:44;96447.78;;;10.33;68.14
38912;BME280;28444;48.056;14.408;2023-04-01T08:37:15;96459.22;;;10.42;68.46
38912;BME280;28444;48.056;14.408;2023-04-01T08:39:49;96442.13;;;10.41;68.66
38912;BME280;28444;48.056;14.408;2023-04-01T08:43:23;96449.44;;;10.60;69.87
38912;BME280;28444;48.056;14.408;2023-04-01T08:46:26;96456.69;;;10.55;68.52
38912;BME280;28444;48.056;14.408;2023-04-01T08:52:35;96455.31;;;10.66;66.69
38912;BME280;28444;48.056;14.408;2023-04-01T08:55:36;96439.03;;;10.68;65.72
38912;BME280;28444;48.056;14.408;2023-04-01T08:58:37;96449.25;;;10.68;66.78
38912;BME280;28444;48.056;14.408;2023-04-01T09:01:21;96451.25;;;11.00;67.72
38912;BME280;28444;48.056;14.408;2023-04-01T09:04:15;96453.41;;;11.14;66.58
38912;BME280;28444;48.056;14.408;2023-04-01T09:07:35;96459.47;;;11.12;66.17
38912;BME280;28444;48.056;14.408;2023-04-01T09:17:04;96458.06;;;11.11;65.03
38912;BME280;28444;48.056;14.408;2023-04-01T09:22:47;96457.00;;;11.28;65.52
38912;BME280;28444;48.056;14.408;2023-04-01T09:29:22;96453.91;;;11.33;65.04
38912;BME280;28444;48.056;14.408;2023-04-01T09:35:48;96449.97;;;11.25;64.29
38912;BME280;28444;48.056;14.408;2023-04-01T09:39:03;96455.06;;;11.07;64.08
38912;BME280;28444;48.056;14.408;2023-04-01T09:42:21;96447.19;;;10.90;65.29
38912;BME280;28444;48.056;14.408;2023-04-01T09:45:01;96452.09;;;11.15;66.02
38912;BME280;28444;48.056;14.408;2023-04-01T09:48:02;96455.09;;;11.30;66.53
38912;BME280;28444;48.056;14.408;2023-04-01T09:51:04;96448.78;;;11.28;64.54
38912;BME280;28444;48.056;14.408;2023-04-01T09:54:10;96453.91;;;11.33;64.54
38912;BME280;28444;48.056;14.408;2023-04-01T10:23:11;96442.50;;;11.96;64.46
38912;BME280;28444;48.056;14.408;2023-04-01T10:36:07;96424.78;;;12.22;60.92
38912;BME280;28444;48.056;14.408;2023-04-01T10:43:40;96423.81;;;12.29;60.02
38912;BME280;28444;48.056;14.408;2023-04-01T10:48:49;96424.78;;;12.22;60.93
38912;BME280;28444;48.056;14.408;2023-04-01T11:11:17;96407.81;;;12.38;60.44
38912;BME280;28444;48.056;14.408;2023-04-01T11:15:19;96390.06;;;12.64;59.64
38912;BME280;28444;48.056;14.408;2023-04-01T11:20:17;96378.53;;;12.28;58.31
38912;BME280;28444;48.056;14.408;2023-04-01T11:23:29;96389.28;;;12.24;60.51
38912;BME280;28444;48.056;14.408;2023-04-01T11:26:08;96376.88;;;11.86;59.81
38912;BME280;28444;48.056;14.408;2023-04-01T11:28:56;96377.59;;;11.87;58.92
38912;BME280;28444;48.056;14.408;2023-04-01T11:40:28;96373.50;;;12.37;58.35
38912;BME280;28444;48.056;14.408;2023-04-01T11:46:24;96363.13;;;12.61;57.87
38912;BME280;28444;48.056;14.408;2023-04-01T11:52:32;96356.88;;;12.72;55.67
38912;BME280;28444;48.056;14.408;2023-04-01T11:58:22;96354.78;;;12.98;56.37
38912;BME280;28444;48.056;14.408;2023-04-01T12:04:54;96342.91;;;13.21;55.42
38912;BME280;28444;48.056;14.408;2023-04-01T12:07:57;96351.75;;;13.19;54.87
38912;BME280;28444;48.056;14.408;2023-04-01T12:10:40;96352.41;;;13.32;56.59
38912;BME280;28444;48.056;14.408;2023-04-01T12:13:28;96346.31;;;13.33;53.37
38912;BME280;28444;48.056;14.408;2023-04-01T12:16:41;96339.69;;;13.38;54.07
38912;BME280;28444;48.056;14.408;2023-04-01T12:22:59;96342.94;;;13.35;54.52
38912;BME280;28444;48.056;14.408;2023-04-01T12:37:36;96317.72;;;13.52;54.57
38912;BME280;28444;48.056;14.408;2023-04-01T12:43:32;96345.59;;;13.46;53.99
38912;BME280;28444;48.056;14.408;2023-04-01T12:46:32;96394.81;;;12.89;57.64
38912;BME280;28444;48.056;14.408;2023-04-01T12:49:27;96415.09;;;10.57;73.91
38912;BME280;28444;48.056;14.408;2023-04-01T12:52:11;96420.63;;;9.61;83.35
38912;BME280;28444;48.056;14.408;2023-04-01T12:55:02;96400.63;;;9.06;84.79
38912;BME280;28444;48.056;14.408;2023-04-01T12:58:14;96409.31;;;9.24;85.91
38912;BME280;28444;48.056;14.408;2023-04-01T13:04:43;96399.47;;;9.93;84.18
38912;BME280;28444;48.056;14.408;2023-04-01T13:11:17;96402.56;;;10.87;83.12
38912;BME280;28444;48.056;14.408;2023-04-01T13:14:18;96399.63;;;11.18;79.55
38912;BME280;28444;48.056;14.408;2023-04-01T13:17:29;96397.25;;;11.36;77.63
38912;BME280;28444;48.056;14.408;2023-04-01T13:23:38;96382.25;;;11.84;76.79
38912;BME280;28444;48.056;14.408;2023-04-01T13:29:59;96383.00;;;12.10;75.70
38912;BME280;28444;48.056;14.408;2023-04-01T13:33:17;96384.34;;;12.09;73.63
38912;BME280;28444;48.056;14.408;2023-04-01T13:35:31;96384.50;;;12.25;74.37
38912;BME280;28444;48.056;14.408;2023-04-01T13:54:29;96383.53;;;12.58;71.77
38912;BME280;28444;48.056;14.408;2023-04-01T13:57:14;96379.88;;;12.53;71.56
38912;BME280;28444;48.056;14.408;2023-04-01T13:59:59;96386.97;;;12.33;71.08
38912;BME280;28444;48.056;14.408;2023-04-01T14:05:57;96378.69;;;12.19;69.62
38912;BME280;28444;48.056;14.408;2023-04-01T14:15:41;96383.06;;;11.87;75.76
38912;BME280;28444;48.056;14.408;2023-04-01T14:21:38;96393.19;;;11.96;75.36
38912;BME280;28444;48.056;14.408;2023-04-01T14:24:20;96390.56;;;11.86;73.44
38912;BME280;28444;48.056;14.408;2023-04-01T14:30:35;96411.44;;;11.44;74.61
38912;BME280;28444;48.056;14.408;2023-04-01T14:33:21;96415.59;;;11.33;75.01
38912;BME280;28444;48.056;14.408;2023-04-01T14:39:55;96413.69;;;11.48;68.43
38912;BME280;28444;48.056;14.408;2023-04-01T14:46:22;96413.31;;;11.65;70.73
38912;BME280;28444;48.056;14.408;2023-04-01T14:49:02;96414.59;;;11.76;68.60
38912;BME280;28444;48.056;14.408;2023-04-01T14:51:34;96415.44;;;11.90;68.68
38912;BME280;28444;48.056;14.408;2023-04-01T14:54:30;96424.34;;;12.14;66.76
38912;BME280;28444;48.056;14.408;2023-04-01T14:57:11;96413.06;;;11.96;67.16
38912;BME280;28444;48.056;14.408;2023-04-01T14:59:45;96423.56;;;11.76;67.14
38912;BME280;28444;48.056;14.408;2023-04-01T15:03:22;96451.63;;;11.18;71.04
38912;BME280;28444;48.056;14.408;2023-04-01T15:09:33;96457.13;;;9.66;89.25
38912;BME280;28444;48.056;14.408;2023-04-01T15:16:01;96447.16;;;9.71;85.25
38912;BME280;28444;48.056;14.408;2023-04-01T15:25:39;96473.38;;;9.85;83.21
38912;BME280;28444;48.056;14.408;2023-04-01T15:28:16;96473.88;;;9.72;82.94
38912;BME280;28444;48.056;14.408;2023-04-01T15:34:34;96499.75;;;9.71;82.52
38912;BME280;28444;48.056;14.408;2023-04-01T15:37:55;96490.25;;;9.72;82.95
38912;BME280;28444;48.056;14.408;2023-04-01T15:40:28;96488.09;;;9.80;80.98
38912;BME280;28444;48.056;14.408;2023-04-01T15:43:18;96480.88;;;9.85;81.26
38912;BME280;28444;48.056;14.408;2023-04-01T15:46:26;96495.09;;;9.83;79.38
38912;BME280;28444;48.056;14.408;2023-04-01T15:55:39;96491.94;;;10.08;77.49
38912;BME280;28444;48.056;14.408;2023-04-01T16:01:34;96494.72;;;10.20;77.54
38912;BME280;28444;48.056;14.408;2023-04-01T16:04:17;96485.13;;;10.19;73.98
38912;BME280;28444;48.056;14.408;2023-04-01T16:10:36;96488.19;;;10.13;72.48
38912;BME280;28444;48.056;14.408;2023-04-01T16:13:28;96494.81;;;10.10;71.50
38912;BME280;28444;48.056;14.408;2023-04-01T16:16:29;96504.03;;;10.05;71.99
38912;BME280;28444;48.056;14.408;2023-04-01T16:19:07;96501.75;;;10.02;71.32
38912;BME280;28444;48.056;14.408;2023-04-01T16:22:19;96510.53;;;10.00;71.54
38912;BME280;28444;48.056;14.408;2023-04-01T16:25:07;96521.31;;;9.98;70.61
38912;BME280;28444;48.056;14.408;2023-04-01T16:27:46;96517.03;;;9.95;71.23
38912;BME280;28444;48.056;14.408;2023-04-01T16:30:57;96515.72;;;9.96;71.73
38912;BME280;28444;48.056;14.408;2023-04-01T16:36:26;96525.34;;;9.66;72.34
38912;BME280;28444;48.056;14.408;2023-04-01T16:42:40;96550.13;;;9.39;72.71
38912;BME280;28444;48.056;14.408;2023-04-01T16:46:16;96537.53;;;9.24;73.45
38912;BME280;28444;48.056;14.408;2023-04-01T16:48:49;96551.44;;;9.38;73.64
38912;BME280;28444;48.056;14.408;2023-04-01T16:51:19;96546.56;;;9.27;73.01
38912;BME280;28444;48.056;14.408;2023-04-01T16:54:14;96544.97;;;9.33;73.73
38912;BME280;28444;48.056;14.408;2023-04-01T16:56:53;96556.16;;;9.37;72.62
38912;BME280;28444;48.056;14.408;2023-04-01T16:59:37;96564.34;;;9.37;73.98
38912;BME280;28444;48.056;14.408;2023-04-01T17:02:13;96553.72;;;9.42;73.41
38912;BME280;28444;48.056;14.408;2023-04-01T17:05:06;96556.28;;;9.39;74.44
38912;BME280;28444;48.056;14.408;2023-04-01T17:10:56;96562.72;;;9.54;74.07
38912;BME280;28444;48.056;14.408;2023-04-01T17:13:40;96564.88;;;9.55;74.34
38912;BME280;28444;48.056;14.408;2023-04-01T17:25:25;96582.03;;;9.27;75.00
38912;BME280;28444;48.056;14.408;2023-04-01T17:28:14;96587.78;;;9.21;75.35
38912;BME280;28444;48.056;14.408;2023-04-01T17:37:37;96605.00;;;8.95;75.49
38912;BME280;28444;48.056;14.408;2023-04-01T17:40:26;96603.00;;;8.85;76.15
38912;BME280;28444;48.056;14.408;2023-04-01T17:43:15;96601.72;;;8.86;77.32
38912;BME280;28444;48.056;14.408;2023-04-01T17:48:49;96609.91;;;8.86;77.13
38912;BME280;28444;48.056;14.408;2023-04-01T17:51:40;96610.75;;;8.79;78.23
38912;BME280;28444;48.056;14.408;2023-04-01T17:54:24;96613.91;;;8.76;78.64
38912;BME280;28444;48.056;14.408;2023-04-01T17:57:27;96615.47;;;8.69;79.06
38912;BME280;28444;48.056;14.408;2023-04-01T18:04:06;96618.88;;;8.60;79.63
38912;BME280;28444;48.056;14.408;2023-04-01T18:16:43;96636.50;;;8.49;80.56
38912;BME280;28444;48.056;14.408;2023-04-01T18:19:43;96640.25;;;8.54;81.18
38912;BME280;28444;48.056;14.408;2023-04-01T18:22:23;96630.78;;;8.55;81.75
38912;BME280;28444;48.056;14.408;2023-04-01T18:25:01;96631.78;;;8.50;82.09
38912;BME280;28444;48.056;14.408;2023-04-01T18:27:32;96628.63;;;8.53;82.55
38912;BME280;28444;48.056;14.408;2023-04-01T18:30:13;96636.06;;;8.53;82.40
38912;BME280;28444;48.056;14.408;2023-04-01T18:33:05;96625.47;;;8.47;82.37
38912;BME280;28444;48.056;14.408;2023-04-01T18:36:15;96633.78;;;8.49;82.42
38912;BME280;28444;48.056;14.408;2023-04-01T18:38:50;96634.34;;;8.48;82.42
38912;BME280;28444;48.056;14.408;2023-04-01T18:44:50;96635.94;;;8.51;81.50
38912;BME280;28444;48.056;14.408;2023-04-01T18:50:22;96631.19;;;8.51;80.18
38912;BME280;28444;48.056;14.408;2023-04-01T18:52:56;96634.22;;;8.55;80.13
38912;BME280;28444;48.056;14.408;2023-04-01T18:55:40;96639.09;;;8.57;80.93
38912;BME280;28444;48.056;14.408;2023-04-01T18:58:36;96641.72;;;8.64;80.00
38912;BME280;28444;48.056;14.408;2023-04-01T19:01:34;96639.97;;;8.59;80.29
38912;BME280;28444;48.056;14.408;2023-04-01T19:06:53;96646.41;;;8.54;79.80
38912;BME280;28444;48.056;14.408;2023-04-01T19:09:43;96643.53;;;8.52;80.03
38912;BME280;28444;48.056;14.408;2023-04-01T19:15:27;96648.38;;;8.44;81.73